^^
Saratoga-Weather Station Historical Data
Daily Summary for April 16, 2018 Units:  English    Metric   Both
Daily Weekly Monthly Yearly Custom
  High: Low: Average:
Temperature: 52.2 °F 32.7 °F 41.2 °F
Dew Point: 50.6 °F 31.2 °F 39.6 °F
Humidity: 97% 85% 94%
Wind Speed: 9.2mph 0.0mph 3.4mph
Wind Gust: 12.7mph - -
Wind- - SE
Pressure: 30.20 in 29.40 in -
Precipitation: 2.79 in    
Historical Graphs
 
 
Tabular Data for April 16, 2018
Time Temperature Dew Point Pressure Wind Wind Speed Wind Gust Humidity Rainfall Rate (Hourly) solar
00:01 32.8 °F 31.3 °F 30.19 in North 4.4 mph 5.0 mph 94% 0.00 in 0.0 W/m2
00:06 32.8 °F 31.3 °F 30.20 in North 3.2 mph 4.6 mph 94% 0.00 in 0.0 W/m2
00:11 32.7 °F 31.2 °F 30.19 in NNE 3.2 mph 4.6 mph 94% 0.00 in 0.0 W/m2
00:16 32.7 °F 31.2 °F 30.19 in NNE 3.2 mph 3.5 mph 94% 0.00 in 0.0 W/m2
00:21 32.7 °F 31.2 °F 30.19 in NNE 4.1 mph 4.6 mph 94% 0.00 in 0.0 W/m2
00:26 32.7 °F 31.2 °F 30.19 in NNW 4.3 mph 6.9 mph 94% 0.00 in 0.0 W/m2
00:31 32.7 °F 31.2 °F 30.19 in NNE 5.2 mph 8.1 mph 94% 0.00 in 0.0 W/m2
00:36 32.7 °F 31.2 °F 30.19 in NNE 3.2 mph 4.0 mph 94% 0.00 in 0.0 W/m2
00:41 32.7 °F 31.2 °F 30.18 in NNE 3.6 mph 4.6 mph 94% 0.00 in 0.0 W/m2
00:46 32.7 °F 31.2 °F 30.18 in NNE 4.1 mph 5.8 mph 94% 0.00 in 0.0 W/m2
00:51 32.7 °F 31.2 °F 30.18 in NNE 3.0 mph 3.5 mph 94% 0.00 in 0.0 W/m2
00:56 32.7 °F 31.2 °F 30.18 in NNW 3.8 mph 4.6 mph 94% 0.00 in 0.0 W/m2
01:01 32.8 °F 31.3 °F 30.18 in NNE 2.8 mph 3.5 mph 94% 0.00 in 0.0 W/m2
01:06 32.8 °F 31.3 °F 30.18 in North 2.5 mph 3.5 mph 94% 0.00 in 0.0 W/m2
01:11 32.8 °F 31.3 °F 30.17 in NNE 4.2 mph 6.9 mph 94% 0.00 in 0.0 W/m2
01:16 32.8 °F 31.3 °F 30.18 in NNE 4.7 mph 10.0 mph 94% 0.00 in 0.0 W/m2
01:21 32.8 °F 31.3 °F 30.18 in NNE 2.0 mph 3.5 mph 94% 0.00 in 0.0 W/m2
01:26 32.8 °F 31.3 °F 30.18 in NNE 3.0 mph 4.6 mph 94% 0.00 in 0.0 W/m2
01:31 32.8 °F 31.3 °F 30.17 in ENE 4.6 mph 5.0 mph 94% 0.00 in 0.0 W/m2
01:36 32.9 °F 31.4 °F 30.17 in NNE 3.6 mph 4.0 mph 94% 0.01 in 0.0 W/m2
01:41 32.8 °F 31.3 °F 30.17 in NNE 5.3 mph 8.1 mph 94% 0.01 in 0.0 W/m2
01:46 32.8 °F 31.3 °F 30.18 in NNE 3.3 mph 3.5 mph 94% 0.01 in 0.0 W/m2
01:51 32.8 °F 31.3 °F 30.17 in NNE 3.6 mph 4.0 mph 94% 0.02 in 0.0 W/m2
01:56 32.8 °F 31.3 °F 30.16 in NNE 2.6 mph 4.6 mph 94% 0.02 in 0.0 W/m2
02:01 32.8 °F 31.3 °F 30.15 in NE 4.2 mph 4.6 mph 94% 0.03 in 0.0 W/m2
02:06 32.8 °F 31.3 °F 30.15 in North 4.2 mph 5.8 mph 94% 0.03 in 0.0 W/m2
02:11 32.8 °F 31.3 °F 30.14 in North 3.4 mph 5.8 mph 94% 0.04 in 0.0 W/m2
02:16 32.8 °F 31.3 °F 30.14 in NE 5.5 mph 6.0 mph 94% 0.04 in 0.0 W/m2
02:22 32.9 °F 31.4 °F 30.13 in NNE 4.1 mph 6.9 mph 94% 0.05 in 0.0 W/m2
02:27 32.9 °F 31.4 °F 30.14 in NE 3.3 mph 5.8 mph 94% 0.05 in 0.0 W/m2
02:32 32.9 °F 31.4 °F 30.14 in NW 1.6 mph 3.5 mph 94% 0.06 in 0.0 W/m2
02:37 32.9 °F 31.4 °F 30.12 in North 3.9 mph 6.9 mph 94% 0.05 in 0.0 W/m2
02:42 32.9 °F 31.4 °F 30.12 in North 2.9 mph 4.0 mph 94% 0.05 in 0.0 W/m2
02:47 33.0 °F 31.5 °F 30.12 in North 3.4 mph 5.0 mph 94% 0.05 in 0.0 W/m2
02:52 33.0 °F 31.5 °F 30.13 in NNE 2.3 mph 3.5 mph 94% 0.04 in 0.0 W/m2
02:57 33.0 °F 31.5 °F 30.12 in North 4.5 mph 6.9 mph 94% 0.05 in 0.0 W/m2
03:02 33.0 °F 31.7 °F 30.12 in North 5.1 mph 9.2 mph 95% 0.04 in 0.0 W/m2
03:07 33.1 °F 31.8 °F 30.11 in NNE 4.3 mph 6.9 mph 95% 0.05 in 0.0 W/m2
03:12 33.1 °F 31.8 °F 30.11 in NNW 3.9 mph 8.1 mph 95% 0.04 in 0.0 W/m2
03:17 33.1 °F 31.8 °F 30.10 in North 2.2 mph 4.0 mph 95% 0.03 in 0.0 W/m2
03:22 33.1 °F 31.8 °F 30.10 in NNW 5.1 mph 6.9 mph 95% 0.03 in 0.0 W/m2
03:27 33.2 °F 31.9 °F 30.10 in NNE 4.9 mph 7.0 mph 95% 0.04 in 0.0 W/m2
03:32 33.2 °F 31.9 °F 30.10 in North 4.2 mph 6.0 mph 95% 0.03 in 0.0 W/m2
03:37 33.2 °F 31.9 °F 30.09 in NNE 4.3 mph 8.0 mph 95% 0.03 in 0.0 W/m2
03:42 33.2 °F 31.9 °F 30.09 in NE 4.0 mph 8.0 mph 95% 0.04 in 0.0 W/m2
03:47 33.2 °F 31.9 °F 30.08 in North 5.4 mph 7.0 mph 95% 0.04 in 0.0 W/m2
03:52 33.2 °F 31.9 °F 30.08 in NNE 6.7 mph 9.2 mph 95% 0.05 in 0.0 W/m2
03:57 33.3 °F 32.0 °F 30.07 in NNE 4.7 mph 8.1 mph 95% 0.04 in 0.0 W/m2
04:02 33.3 °F 32.0 °F 30.07 in NNE 4.6 mph 8.1 mph 95% 0.05 in 0.0 W/m2
04:07 33.4 °F 32.1 °F 30.07 in North 4.5 mph 4.6 mph 95% 0.04 in 0.0 W/m2
04:12 33.4 °F 32.1 °F 30.07 in North 4.5 mph 8.0 mph 95% 0.04 in 0.0 W/m2
04:18 33.5 °F 32.2 °F 30.06 in North 4.2 mph 8.0 mph 95% 0.05 in 0.0 W/m2
04:23 33.5 °F 32.2 °F 30.06 in North 5.1 mph 8.1 mph 95% 0.04 in 0.0 W/m2
04:28 33.5 °F 32.2 °F 30.06 in NNE 5.6 mph 8.1 mph 95% 0.04 in 0.0 W/m2
04:33 33.6 °F 32.3 °F 30.06 in North 5.1 mph 8.1 mph 95% 0.04 in 0.0 W/m2
04:38 33.6 °F 32.3 °F 30.05 in North 5.2 mph 8.1 mph 95% 0.05 in 0.0 W/m2
04:43 33.6 °F 32.3 °F 30.04 in NNE 7.0 mph 10.4 mph 95% 0.04 in 0.0 W/m2
04:48 33.7 °F 32.4 °F 30.04 in NNE 5.0 mph 8.1 mph 95% 0.04 in 0.0 W/m2
04:53 33.7 °F 32.4 °F 30.03 in NNW 6.4 mph 10.4 mph 95% 0.03 in 0.0 W/m2
04:58 33.8 °F 32.5 °F 30.03 in NNE 7.0 mph 9.2 mph 95% 0.03 in 0.0 W/m2
05:03 33.8 °F 32.5 °F 30.03 in NNE 5.2 mph 9.2 mph 95% 0.02 in 0.0 W/m2
05:08 33.8 °F 32.5 °F 30.02 in NE 5.0 mph 10.0 mph 95% 0.02 in 0.0 W/m2
05:13 33.9 °F 32.6 °F 30.02 in North 4.3 mph 9.2 mph 95% 0.03 in 0.0 W/m2
05:18 33.9 °F 32.6 °F 30.02 in North 4.6 mph 6.9 mph 95% 0.03 in 0.0 W/m2
05:23 33.9 °F 32.6 °F 30.02 in NNE 5.9 mph 8.1 mph 95% 0.03 in 0.0 W/m2
05:28 34.0 °F 32.7 °F 30.01 in NNE 3.7 mph 4.6 mph 95% 0.03 in 0.0 W/m2
05:33 34.0 °F 32.7 °F 30.01 in North 3.2 mph 5.8 mph 95% 0.04 in 0.0 W/m2
05:38 34.1 °F 32.8 °F 30.01 in North 3.8 mph 6.0 mph 95% 0.03 in 0.0 W/m2
05:43 34.1 °F 32.8 °F 30.00 in North 3.8 mph 5.0 mph 95% 0.04 in 0.0 W/m2
05:48 34.2 °F 32.9 °F 30.00 in North 5.7 mph 10.4 mph 95% 0.04 in 0.0 W/m2
05:53 34.3 °F 33.0 °F 30.00 in NNE 4.9 mph 6.9 mph 95% 0.04 in 0.0 W/m2
05:58 34.3 °F 33.0 °F 30.00 in NNE 2.3 mph 4.6 mph 95% 0.04 in 0.0 W/m2
06:03 34.4 °F 33.1 °F 30.00 in NNE 3.8 mph 4.6 mph 95% 0.04 in 0.0 W/m2
06:08 34.4 °F 33.1 °F 29.99 in North 4.0 mph 5.8 mph 95% 0.04 in 0.0 W/m2
06:14 34.4 °F 33.1 °F 29.99 in NNE 2.9 mph 4.6 mph 95% 0.04 in 0.0 W/m2
06:19 34.5 °F 33.2 °F 29.99 in NNE 3.5 mph 3.5 mph 95% 0.03 in 0.0 W/m2
06:24 34.6 °F 33.3 °F 29.98 in North 3.0 mph 3.5 mph 95% 0.03 in 0.0 W/m2
06:29 34.7 °F 33.4 °F 29.97 in NNE 4.6 mph 6.9 mph 95% 0.04 in 0.0 W/m2
06:34 34.8 °F 33.5 °F 29.97 in NNE 3.4 mph 4.6 mph 95% 0.03 in 0.0 W/m2
06:39 34.9 °F 33.6 °F 29.96 in North 4.2 mph 8.1 mph 95% 0.03 in 0.0 W/m2
06:44 35.0 °F 33.7 °F 29.95 in NNE 4.7 mph 5.8 mph 95% 0.02 in 0.0 W/m2
06:49 35.0 °F 33.7 °F 29.95 in NNE 3.1 mph 4.6 mph 95% 0.03 in 5.0 W/m2
06:54 35.1 °F 33.8 °F 29.95 in NNE 3.8 mph 6.9 mph 95% 0.03 in 0.0 W/m2
06:59 35.2 °F 33.9 °F 29.95 in North 5.9 mph 9.2 mph 95% 0.04 in 0.0 W/m2
07:04 35.2 °F 33.9 °F 29.95 in NE 3.1 mph 6.0 mph 95% 0.06 in 0.0 W/m2
07:09 35.3 °F 34.0 °F 29.94 in North 4.2 mph 9.0 mph 95% 0.07 in 5.0 W/m2
07:14 35.4 °F 34.1 °F 29.94 in NNE 3.1 mph 5.8 mph 95% 0.11 in 9.0 W/m2
07:19 35.5 °F 34.2 °F 29.95 in NNE 2.5 mph 5.0 mph 95% 0.14 in 12.0 W/m2
07:24 35.5 °F 34.2 °F 29.95 in NE 3.0 mph 4.0 mph 95% 0.20 in 11.0 W/m2
07:29 35.5 °F 34.2 °F 29.96 in NW 2.1 mph 3.5 mph 95% 0.23 in 12.0 W/m2
07:34 35.6 °F 34.3 °F 29.97 in NW 1.4 mph 2.0 mph 95% 0.25 in 12.0 W/m2
07:39 35.7 °F 34.4 °F 29.96 in North 2.9 mph 3.5 mph 95% 0.26 in 19.0 W/m2
07:44 35.7 °F 34.4 °F 29.95 in NNE 2.7 mph 4.0 mph 95% 0.26 in 26.0 W/m2
07:49 35.7 °F 34.4 °F 29.95 in North 2.9 mph 4.0 mph 95% 0.25 in 23.0 W/m2
07:54 35.7 °F 34.4 °F 29.95 in North 2.9 mph 3.5 mph 95% 0.26 in 25.0 W/m2
07:59 35.7 °F 34.4 °F 29.94 in NNW 3.5 mph 4.6 mph 95% 0.26 in 32.0 W/m2
08:05 35.8 °F 34.5 °F 29.94 in North 2.7 mph 3.5 mph 95% 0.25 in 19.0 W/m2
08:10 35.8 °F 34.5 °F 29.93 in NNE 3.6 mph 4.6 mph 95% 0.24 in 26.0 W/m2
08:15 35.8 °F 34.5 °F 29.92 in North 3.9 mph 5.0 mph 95% 0.19 in 30.0 W/m2
08:20 35.9 °F 34.6 °F 29.92 in NNW 3.1 mph 5.0 mph 95% 0.17 in 32.0 W/m2
08:25 36.1 °F 34.8 °F 29.92 in North 3.4 mph 5.0 mph 95% 0.12 in 26.0 W/m2
08:30 36.2 °F 34.9 °F 29.90 in North 3.2 mph 4.6 mph 95% 0.09 in 33.0 W/m2
08:35 36.2 °F 34.9 °F 29.90 in NNE 5.2 mph 8.1 mph 95% 0.09 in 26.0 W/m2
08:40 36.3 °F 35.0 °F 29.89 in NNE 4.1 mph 6.9 mph 95% 0.09 in 33.0 W/m2
08:45 36.4 °F 35.1 °F 29.88 in NNW 3.7 mph 5.0 mph 95% 0.10 in 30.0 W/m2
08:50 36.5 °F 35.2 °F 29.88 in North 4.1 mph 4.6 mph 95% 0.10 in 32.0 W/m2
08:55 36.6 °F 35.3 °F 29.86 in North 4.9 mph 9.2 mph 95% 0.14 in 30.0 W/m2
09:00 36.6 °F 35.3 °F 29.86 in NNE 3.2 mph 4.6 mph 95% 0.15 in 33.0 W/m2
09:05 36.7 °F 35.4 °F 29.86 in NNE 4.4 mph 6.0 mph 95% 0.15 in 26.0 W/m2
09:10 36.9 °F 35.6 °F 29.84 in NNE 7.4 mph 9.2 mph 95% 0.15 in 18.0 W/m2
09:15 37.0 °F 35.7 °F 29.84 in NNW 5.8 mph 10.4 mph 95% 0.16 in 12.0 W/m2
09:20 37.1 °F 35.8 °F 29.87 in NNW 1.5 mph 3.5 mph 95% 0.17 in 9.0 W/m2
09:25 37.1 °F 35.8 °F 29.84 in North 6.9 mph 8.1 mph 95% 0.18 in 33.0 W/m2
09:31 37.2 °F 35.9 °F 29.83 in NE 8.7 mph 11.5 mph 95% 0.19 in 49.0 W/m2
09:36 37.3 °F 36.0 °F 29.83 in NNW 3.7 mph 6.0 mph 95% 0.20 in 44.0 W/m2
09:41 37.5 °F 36.2 °F 29.82 in NNW 5.1 mph 10.4 mph 95% 0.21 in 53.0 W/m2
09:46 37.6 °F 36.3 °F 29.82 in NNE 3.7 mph 9.2 mph 95% 0.20 in 33.0 W/m2
09:51 37.7 °F 36.4 °F 29.81 in NNW 4.6 mph 8.1 mph 95% 0.20 in 40.0 W/m2
09:56 37.8 °F 36.5 °F 29.81 in North 5.2 mph 8.1 mph 95% 0.18 in 46.0 W/m2
10:01 37.9 °F 36.6 °F 29.80 in North 5.0 mph 5.8 mph 95% 0.17 in 46.0 W/m2
10:06 37.9 °F 36.6 °F 29.80 in NNE 5.2 mph 8.1 mph 95% 0.19 in 33.0 W/m2
10:12 38.0 °F 36.7 °F 29.81 in North 5.4 mph 6.9 mph 95% 0.20 in 33.0 W/m2
10:17 38.0 °F 36.7 °F 29.80 in NNE 1.9 mph 4.0 mph 95% 0.24 in 28.0 W/m2
10:22 38.0 °F 36.7 °F 29.80 in Calm   3.5 mph 95% 0.26 in 23.0 W/m2
10:27 38.0 °F 36.7 °F 29.79 in NNE 4.9 mph 8.1 mph 95% 0.25 in 30.0 W/m2
10:32 38.0 °F 36.7 °F 29.80 in NNE 2.7 mph 5.8 mph 95% 0.27 in 51.0 W/m2
10:37 38.1 °F 36.8 °F 29.78 in NNE 4.1 mph 5.8 mph 95% 0.29 in 39.0 W/m2
10:42 38.2 °F 36.9 °F 29.77 in NNE 4.5 mph 6.9 mph 95% 0.29 in 49.0 W/m2
10:47 38.4 °F 37.1 °F 29.76 in North 6.4 mph 9.2 mph 95% 0.32 in 42.0 W/m2
10:52 38.5 °F 37.2 °F 29.74 in NNE 8.0 mph 10.4 mph 95% 0.33 in 86.0 W/m2
10:57 38.7 °F 37.4 °F 29.74 in North 4.1 mph 8.1 mph 95% 0.32 in 40.0 W/m2
11:02 38.8 °F 37.8 °F 29.73 in NNE 4.4 mph 8.1 mph 96% 0.32 in 33.0 W/m2
11:07 38.9 °F 37.9 °F 29.73 in NNE 5.3 mph 6.9 mph 96% 0.28 in 19.0 W/m2
11:12 39.0 °F 38.0 °F 29.73 in NNW 5.7 mph 5.8 mph 96% 0.29 in 21.0 W/m2
11:17 39.0 °F 38.0 °F 29.73 in North 2.9 mph 3.5 mph 96% 0.24 in 16.0 W/m2
11:22 39.1 °F 37.8 °F 29.72 in NW 0.7 mph 2.3 mph 95% 0.21 in 12.0 W/m2
11:27 39.0 °F 37.7 °F 29.73 in NW 2.4 mph 6.9 mph 95% 0.22 in 12.0 W/m2
11:32 38.7 °F 37.4 °F 29.73 in NNW 2.6 mph 3.5 mph 95% 0.25 in 9.0 W/m2
11:37 38.5 °F 37.2 °F 29.72 in North 1.1 mph 3.5 mph 95% 0.27 in 18.0 W/m2
11:42 38.2 °F 36.9 °F 29.71 in North 5.4 mph 9.0 mph 95% 0.33 in 30.0 W/m2
11:47 38.2 °F 36.9 °F 29.72 in NNW 2.6 mph 3.5 mph 95% 0.37 in 18.0 W/m2
11:52 38.2 °F 37.2 °F 29.72 in NW 2.7 mph 4.6 mph 96% 0.41 in 14.0 W/m2
11:57 38.1 °F 37.1 °F 29.69 in NNE 6.0 mph 9.2 mph 96% 0.45 in 26.0 W/m2
12:02 38.0 °F 36.7 °F 29.67 in NNE 5.9 mph 9.2 mph 95% 0.50 in 37.0 W/m2
12:07 38.1 °F 36.8 °F 29.69 in NNW 1.8 mph 4.6 mph 95% 0.53 in 23.0 W/m2
12:13 38.3 °F 37.3 °F 29.69 in NNE 3.4 mph 4.6 mph 96% 0.57 in 12.0 W/m2
12:18 38.5 °F 37.5 °F 29.67 in NNE 3.7 mph 4.6 mph 96% 0.63 in 33.0 W/m2
12:23 39.0 °F 38.0 °F 29.66 in NNE 4.9 mph 8.1 mph 96% 0.67 in 33.0 W/m2
12:28 39.5 °F 38.5 °F 29.64 in NNW 4.3 mph 5.8 mph 96% 0.69 in 25.0 W/m2
12:33 39.8 °F 38.8 °F 29.64 in North 3.5 mph 4.6 mph 96% 0.68 in 18.0 W/m2
12:38 39.9 °F 38.9 °F 29.62 in NNW 5.6 mph 8.1 mph 96% 0.66 in 26.0 W/m2
12:43 39.8 °F 38.8 °F 29.62 in NNE 3.3 mph 4.6 mph 96% 0.63 in 30.0 W/m2
12:48 40.0 °F 39.0 °F 29.60 in NE 4.4 mph 8.0 mph 96% 0.60 in 40.0 W/m2
12:53 40.7 °F 39.6 °F 29.59 in NNW 4.6 mph 8.1 mph 96% 0.60 in 35.0 W/m2
12:58 41.4 °F 40.3 °F 29.59 in NNE 4.8 mph 5.0 mph 96% 0.58 in 26.0 W/m2
13:03 41.9 °F 40.8 °F 29.57 in NE 6.2 mph 10.0 mph 96% 0.59 in 33.0 W/m2
13:08 42.5 °F 41.4 °F 29.57 in North 5.2 mph 8.1 mph 96% 0.58 in 19.0 W/m2
13:13 43.3 °F 42.2 °F 29.61 in SW 4.0 mph 5.0 mph 96% 0.53 in 14.0 W/m2
13:18 43.4 °F 42.6 °F 29.60 in North 2.2 mph 3.5 mph 97% 0.52 in 19.0 W/m2
13:23 43.3 °F 42.2 °F 29.58 in NNE 4.5 mph 8.1 mph 96% 0.52 in 32.0 W/m2
13:28 42.9 °F 41.8 °F 29.60 in WSW 3.3 mph 4.0 mph 96% 0.54 in 12.0 W/m2
13:33 42.3 °F 41.2 °F 29.61 in NNW 2.2 mph 3.5 mph 96% 0.56 in 18.0 W/m2
13:38 41.9 °F 40.8 °F 29.61 in Calm   1.2 mph 96% 0.57 in 26.0 W/m2
13:43 41.8 °F 40.7 °F 29.59 in NNE 0.3 mph 3.5 mph 96% 0.60 in 28.0 W/m2
13:48 42.1 °F 41.0 °F 29.58 in Calm     96% 0.61 in 28.0 W/m2
13:53 43.0 °F 42.2 °F 29.56 in North 1.1 mph 3.0 mph 97% 0.59 in 40.0 W/m2
13:58 43.6 °F 42.8 °F 29.56 in Calm     97% 0.58 in 33.0 W/m2
14:04 44.0 °F 43.2 °F 29.56 in Calm     97% 0.55 in 23.0 W/m2
14:09 44.2 °F 43.4 °F 29.55 in NNE 2.7 mph 3.5 mph 97% 0.52 in 33.0 W/m2
14:14 44.5 °F 43.7 °F 29.54 in NNE 2.9 mph 4.6 mph 97% 0.52 in 46.0 W/m2
14:19 44.8 °F 44.0 °F 29.54 in NE 4.6 mph 8.1 mph 97% 0.48 in 58.0 W/m2
14:24 45.2 °F 44.4 °F 29.55 in North 0.3 mph 2.0 mph 97% 0.41 in 49.0 W/m2
14:29 45.7 °F 44.9 °F 29.54 in Calm     97% 0.35 in 44.0 W/m2
14:34 46.0 °F 45.2 °F 29.54 in NNE 2.0 mph 6.0 mph 97% 0.29 in 65.0 W/m2
14:39 46.9 °F 46.1 °F 29.53 in Calm     97% 0.23 in 90.0 W/m2
14:44 47.6 °F 46.8 °F 29.54 in Calm     97% 0.16 in 74.0 W/m2
14:49 47.2 °F 46.4 °F 29.53 in Calm     97% 0.11 in 77.0 W/m2
14:54 46.3 °F 45.5 °F 29.52 in Calm     97% 0.07 in 98.0 W/m2
14:59 45.9 °F 44.8 °F 29.52 in Calm     96% 0.04 in 104.0 W/m2
15:04 45.7 °F 44.6 °F 29.52 in West 0.6 mph 3.5 mph 96% 0.03 in 60.0 W/m2
15:09 45.5 °F 44.4 °F 29.52 in Calm     96% 0.03 in 74.0 W/m2
15:14 45.1 °F 44.0 °F 29.51 in Calm     96% 0.02 in 56.0 W/m2
15:19 44.8 °F 43.7 °F 29.51 in Calm     96% 0.01 in 44.0 W/m2
15:24 44.7 °F 43.6 °F 29.50 in Calm   2.3 mph 96% 0.01 in 105.0 W/m2
15:29 44.8 °F 43.7 °F 29.50 in Calm     96% 0.00 in 171.0 W/m2
15:34 44.9 °F 43.8 °F 29.49 in Calm     96% 0.00 in 83.0 W/m2
15:39 45.1 °F 44.3 °F 29.48 in Calm     97% 0.00 in 42.0 W/m2
15:44 45.4 °F 44.6 °F 29.48 in Calm     97% 0.00 in 51.0 W/m2
15:49 45.5 °F 44.7 °F 29.48 in Calm     97% 0.00 in 76.0 W/m2
15:54 45.6 °F 44.8 °F 29.48 in Calm     97% 0.00 in 79.0 W/m2
15:59 45.9 °F 45.1 °F 29.47 in Calm     97% 0.00 in 86.0 W/m2
16:04 45.9 °F 45.1 °F 29.47 in Calm     97% 0.00 in 39.0 W/m2
16:09 45.6 °F 44.8 °F 29.46 in Calm     97% 0.00 in 63.0 W/m2
16:14 45.6 °F 44.8 °F 29.46 in Calm     97% 0.00 in 62.0 W/m2
16:19 45.6 °F 44.8 °F 29.46 in Calm     97% 0.00 in 51.0 W/m2
16:24 45.8 °F 45.0 °F 29.46 in Calm     97% 0.00 in 37.0 W/m2
16:29 45.8 °F 45.0 °F 29.46 in Calm     97% 0.00 in 37.0 W/m2
16:34 45.9 °F 45.1 °F 29.46 in Calm     97% 0.00 in 35.0 W/m2
16:39 46.1 °F 45.3 °F 29.46 in Calm     97% 0.00 in 47.0 W/m2
16:45 46.3 °F 45.5 °F 29.46 in Calm     97% 0.00 in 40.0 W/m2
16:50 46.8 °F 46.0 °F 29.45 in Calm     97% 0.00 in 232.0 W/m2
16:55 47.5 °F 46.7 °F 29.45 in Calm     97% 0.00 in 142.0 W/m2
17:00 48.0 °F 47.2 °F 29.45 in Calm     97% 0.00 in 102.0 W/m2
17:05 48.5 °F 47.7 °F 29.45 in Calm     97% 0.00 in 100.0 W/m2
17:10 48.7 °F 47.9 °F 29.44 in Calm     97% 0.00 in 88.0 W/m2
17:15 48.8 °F 48.0 °F 29.45 in Calm     97% 0.00 in 72.0 W/m2
17:20 48.8 °F 48.0 °F 29.45 in Calm     97% 0.00 in 88.0 W/m2
17:25 48.8 °F 48.0 °F 29.44 in North 3.8 mph 8.1 mph 97% 0.00 in 105.0 W/m2
17:30 48.9 °F 48.1 °F 29.43 in Calm     97% 0.00 in 165.0 W/m2
17:35 49.4 °F 48.6 °F 29.43 in Calm     97% 0.00 in 362.0 W/m2
17:40 49.7 °F 48.9 °F 29.42 in Calm     97% 0.00 in 348.0 W/m2
17:45 50.2 °F 49.4 °F 29.42 in NNW 2.4 mph 3.5 mph 97% 0.00 in 330.0 W/m2
17:50 50.4 °F 49.6 °F 29.42 in WSW 0.5 mph 2.3 mph 97% 0.00 in 294.0 W/m2
17:55 50.3 °F 49.5 °F 29.42 in West 1.0 mph 3.5 mph 97% 0.00 in 86.0 W/m2
18:00 50.8 °F 50.0 °F 29.42 in SW 3.4 mph 8.1 mph 97% 0.00 in 91.0 W/m2
18:05 50.8 °F 50.0 °F 29.42 in Calm     97% 0.00 in 116.0 W/m2
18:10 50.6 °F 49.8 °F 29.42 in SW 0.8 mph 3.5 mph 97% 0.00 in 70.0 W/m2
18:15 50.8 °F 50.0 °F 29.42 in SSE 3.6 mph 3.6 mph 97% 0.00 in 47.0 W/m2
18:20 51.2 °F 50.4 °F 29.42 in SE 8.7 mph 10.0 mph 97% 0.00 in 51.0 W/m2
18:25 51.4 °F 50.6 °F 29.42 in SSE 4.9 mph 8.1 mph 97% 0.00 in 40.0 W/m2
18:30 51.6 °F 50.5 °F 29.41 in SSW 4.0 mph 6.0 mph 96% 0.00 in 30.0 W/m2
18:35 51.6 °F 50.5 °F 29.41 in SE 4.9 mph 9.2 mph 96% 0.00 in 37.0 W/m2
18:41 51.7 °F 50.3 °F 29.40 in SSE 3.9 mph 9.2 mph 95% 0.00 in 46.0 W/m2
18:46 52.0 °F 50.6 °F 29.40 in SE 4.4 mph 9.2 mph 95% 0.00 in 25.0 W/m2
18:51 52.0 °F 50.3 °F 29.40 in SE 2.9 mph 3.5 mph 94% 0.00 in 16.0 W/m2
18:56 52.1 °F 50.1 °F 29.41 in South 5.9 mph 10.4 mph 93% 0.00 in 12.0 W/m2
19:01 52.1 °F 50.1 °F 29.40 in SE 4.2 mph 6.9 mph 93% 0.00 in 11.0 W/m2
19:06 52.2 °F 49.9 °F 29.41 in SSE 2.4 mph 4.6 mph 92% 0.00 in 9.0 W/m2
19:11 52.2 °F 49.7 °F 29.41 in SE 5.4 mph 9.0 mph 91% 0.00 in 0.0 W/m2
19:16 52.2 °F 49.4 °F 29.41 in SE 7.4 mph 11.5 mph 90% 0.00 in 0.0 W/m2
19:21 52.2 °F 48.8 °F 29.41 in SSE 4.4 mph 10.4 mph 88% 0.00 in 0.0 W/m2
19:26 52.2 °F 48.8 °F 29.41 in SSE 2.0 mph 3.5 mph 88% 0.00 in 0.0 W/m2
19:31 52.2 °F 48.4 °F 29.41 in SE 2.1 mph 5.0 mph 87% 0.00 in 0.0 W/m2
19:36 52.2 °F 48.4 °F 29.41 in SE 1.5 mph 3.0 mph 87% 0.00 in 0.0 W/m2
19:41 52.1 °F 48.0 °F 29.41 in ESE 5.4 mph 8.1 mph 86% 0.00 in 0.0 W/m2
19:46 52.0 °F 47.9 °F 29.41 in SSE 3.5 mph 8.1 mph 86% 0.00 in 0.0 W/m2
19:51 51.9 °F 47.8 °F 29.41 in SSE 9.2 mph 11.5 mph 86% 0.00 in 0.0 W/m2
19:56 51.9 °F 47.5 °F 29.41 in SE 5.9 mph 8.1 mph 85% 0.00 in 0.0 W/m2
20:01 51.7 °F 47.3 °F 29.41 in SSE 4.3 mph 4.6 mph 85% 0.00 in 0.0 W/m2
20:06 51.7 °F 47.3 °F 29.41 in SE 5.2 mph 5.8 mph 85% 0.00 in 0.0 W/m2
20:11 51.5 °F 47.1 °F 29.41 in SE 5.4 mph 8.1 mph 85% 0.00 in 0.0 W/m2
20:16 51.4 °F 47.0 °F 29.41 in SE 5.7 mph 8.0 mph 85% 0.00 in 0.0 W/m2
20:22 51.3 °F 46.9 °F 29.41 in SE 6.5 mph 8.0 mph 85% 0.00 in 0.0 W/m2
20:27 51.2 °F 46.8 °F 29.41 in ESE 6.3 mph 12.7 mph 85% 0.00 in 0.0 W/m2
20:32 51.0 °F 46.6 °F 29.41 in SSE 6.4 mph 11.5 mph 85% 0.00 in 0.0 W/m2
20:37 50.9 °F 46.9 °F 29.41 in SE 3.7 mph 5.8 mph 86% 0.00 in 0.0 W/m2
20:42 50.8 °F 46.8 °F 29.41 in SE 5.0 mph 10.4 mph 86% 0.00 in 0.0 W/m2
20:47 50.6 °F 46.6 °F 29.41 in South 3.3 mph 5.8 mph 86% 0.00 in 0.0 W/m2
20:52 50.5 °F 46.5 °F 29.41 in ESE 7.2 mph 10.4 mph 86% 0.00 in 0.0 W/m2
20:57 50.4 °F 46.4 °F 29.41 in SE 3.1 mph 4.6 mph 86% 0.00 in 0.0 W/m2
21:02 50.3 °F 46.3 °F 29.41 in SE 5.2 mph 7.0 mph 86% 0.00 in 0.0 W/m2
21:07 50.2 °F 46.5 °F 29.41 in SSE 2.5 mph 8.1 mph 87% 0.00 in 0.0 W/m2
21:12 50.1 °F 46.4 °F 29.41 in South 2.9 mph 5.8 mph 87% 0.00 in 0.0 W/m2
21:17 50.0 °F 46.3 °F 29.41 in ESE 4.6 mph 6.0 mph 87% 0.00 in 0.0 W/m2
21:22 49.9 °F 46.2 °F 29.42 in SE 5.0 mph 8.1 mph 87% 0.00 in 0.0 W/m2
21:27 49.8 °F 46.1 °F 29.42 in SE 3.8 mph 6.9 mph 87% 0.00 in 0.0 W/m2
21:32 49.7 °F 46.0 °F 29.42 in SE 4.3 mph 5.8 mph 87% 0.00 in 0.0 W/m2
21:37 49.6 °F 46.2 °F 29.42 in SE 3.8 mph 9.2 mph 88% 0.00 in 0.0 W/m2
21:42 49.6 °F 46.2 °F 29.42 in SSE 2.0 mph 3.5 mph 88% 0.00 in 0.0 W/m2
21:47 49.5 °F 46.1 °F 29.42 in ESE 4.5 mph 4.6 mph 88% 0.00 in 0.0 W/m2
21:52 49.4 °F 46.0 °F 29.42 in SSE 3.4 mph 6.9 mph 88% 0.00 in 0.0 W/m2
21:57 49.3 °F 45.9 °F 29.42 in SE 5.0 mph 6.9 mph 88% 0.00 in 0.0 W/m2
22:02 49.2 °F 45.8 °F 29.42 in ESE 4.2 mph 9.2 mph 88% 0.00 in 0.0 W/m2
22:07 49.1 °F 45.7 °F 29.42 in South 2.2 mph 6.9 mph 88% 0.00 in 0.0 W/m2
22:13 49.0 °F 45.9 °F 29.42 in SE 4.2 mph 8.1 mph 89% 0.00 in 0.0 W/m2
22:18 49.0 °F 45.9 °F 29.42 in SSE 3.8 mph 6.9 mph 89% 0.00 in 0.0 W/m2
22:23 48.9 °F 45.8 °F 29.42 in SSE 3.7 mph 5.0 mph 89% 0.00 in 0.0 W/m2
22:28 48.8 °F 45.7 °F 29.41 in SSE 3.2 mph 3.5 mph 89% 0.00 in 0.0 W/m2
22:33 48.8 °F 45.7 °F 29.41 in SSE 5.2 mph 8.1 mph 89% 0.00 in 0.0 W/m2
22:38 48.7 °F 45.6 °F 29.41 in SE 3.0 mph 6.9 mph 89% 0.00 in 0.0 W/m2
22:43 48.7 °F 45.6 °F 29.41 in SE 2.7 mph 4.6 mph 89% 0.00 in 0.0 W/m2
22:48 48.6 °F 45.5 °F 29.41 in SE 2.7 mph 4.0 mph 89% 0.00 in 0.0 W/m2
22:53 48.6 °F 45.5 °F 29.41 in SSE 3.0 mph 4.0 mph 89% 0.00 in 0.0 W/m2
22:58 48.5 °F 45.4 °F 29.41 in ESE 2.6 mph 4.0 mph 89% 0.00 in 0.0 W/m2
23:03 48.5 °F 45.7 °F 29.41 in SE 1.8 mph 2.3 mph 90% 0.00 in 0.0 W/m2
23:08 48.4 °F 45.6 °F 29.41 in SE 3.2 mph 3.5 mph 90% 0.00 in 0.0 W/m2
23:13 48.4 °F 45.6 °F 29.41 in SE 1.8 mph 3.5 mph 90% 0.00 in 0.0 W/m2
23:18 48.4 °F 45.6 °F 29.41 in South 2.4 mph 3.5 mph 90% 0.00 in 0.0 W/m2
23:23 48.3 °F 45.5 °F 29.41 in SE 2.9 mph 3.5 mph 90% 0.00 in 0.0 W/m2
23:28 48.3 °F 45.5 °F 29.41 in South 1.9 mph 3.0 mph 90% 0.00 in 0.0 W/m2
23:33 48.3 °F 45.5 °F 29.41 in SSE 2.9 mph 5.0 mph 90% 0.00 in 0.0 W/m2
23:38 48.3 °F 45.5 °F 29.41 in SSW 3.6 mph 3.6 mph 90% 0.00 in 0.0 W/m2
23:43 48.4 °F 45.6 °F 29.41 in SW 3.6 mph 6.9 mph 90% 0.00 in 0.0 W/m2
23:48 48.5 °F 45.7 °F 29.41 in SSW 2.9 mph 3.5 mph 90% 0.00 in 0.0 W/m2
23:53 48.4 °F 45.9 °F 29.42 in SW 2.7 mph 5.8 mph 91% 0.00 in 0.0 W/m2
23:58 48.4 °F 45.9 °F 29.42 in NW 2.9 mph 5.8 mph 91% 0.00 in 0.0 W/m2
Juneau County Weather
Compliments of Weather Underground - 3 mb